Time;durP1;ratioP1;P1;durP2;ratioP2;P2;SDS_P1;SDS_P2;PMS_P1;PMS_P2;Temp;Humidity;BMP_temperature;BMP_pressure;BME280_temperature;BME280_humidity;BME280_pressure;Samples;Min_cycle;Max_cycle;Signal;HPM_P1;HPM_P2
2024/02/26 00:02:16;;;;;;;1.13;0.73;;;22.40;50.50;;;;;;5076991;28;20060;-63
2024/02/26 00:04:42;;;;;;;1.13;0.90;;;22.40;50.50;;;;;;5062320;28;20028;-63
2024/02/26 00:07:08;;;;;;;1.25;0.80;;;22.40;50.50;;;;;;5061513;28;20564;-64
2024/02/26 00:09:36;;;;;;;1.80;0.98;;;22.30;50.50;;;;;;5077507;28;20028;-62
2024/02/26 00:12:03;;;;;;;1.05;0.82;;;22.30;50.50;;;;;;5079823;28;20033;-62
2024/02/26 00:14:30;;;;;;;0.90;0.80;;;22.30;50.50;;;;;;5077694;28;20051;-63
2024/02/26 00:16:55;;;;;;;1.00;0.80;;;22.30;50.50;;;;;;5076524;28;20574;-64
2024/02/26 00:19:21;;;;;;;1.25;0.70;;;22.30;50.50;;;;;;5079453;28;20123;-66
2024/02/26 00:21:47;;;;;;;1.00;0.70;;;22.30;50.50;;;;;;5080609;28;20035;-67
2024/02/26 00:24:12;;;;;;;1.30;0.90;;;22.30;50.50;;;;;;5078766;28;20106;-66
2024/02/26 00:26:38;;;;;;;1.77;0.80;;;22.20;50.50;;;;;;5076402;28;20054;-67
2024/02/26 00:29:03;;;;;;;1.77;0.80;;;22.20;50.50;;;;;;5075628;28;20028;-67
2024/02/26 00:31:29;;;;;;;1.70;0.98;;;22.20;50.50;;;;;;5077095;28;20033;-66
2024/02/26 00:33:55;;;;;;;1.83;0.90;;;22.20;50.60;;;;;;5077509;28;20697;-66
2024/02/26 00:36:21;;;;;;;1.73;0.90;;;22.20;50.50;;;;;;5060269;28;20382;-66
2024/02/26 00:38:50;;;;;;;1.63;0.90;;;22.20;50.60;;;;;;5079209;28;20035;-66
2024/02/26 00:41:16;;;;;;;1.40;0.80;;;22.20;50.60;;;;;;5078462;28;20108;-66
2024/02/26 00:43:42;;;;;;;1.88;0.90;;;22.10;50.50;;;;;;5080027;28;20020;-66
2024/02/26 00:46:08;;;;;;;1.33;0.75;;;22.10;50.60;;;;;;5075922;28;20472;-66
2024/02/26 00:48:33;;;;;;;1.13;0.90;;;22.10;50.60;;;;;;5078515;28;20024;-66
2024/02/26 00:50:59;;;;;;;1.05;0.80;;;22.00;50.50;;;;;;5078584;28;20063;-66
2024/02/26 00:53:25;;;;;;;1.75;0.90;;;22.10;50.60;;;;;;5082195;28;20377;-66
2024/02/26 00:55:51;;;;;;;1.83;0.80;;;22.10;50.60;;;;;;5081581;28;20132;-66
2024/02/26 00:58:16;;;;;;;1.83;1.00;;;22.00;50.60;;;;;;5080254;28;20047;-66
2024/02/26 01:00:42;;;;;;;1.10;0.90;;;22.00;50.60;;;;;;5080607;28;20514;-66
2024/02/26 01:03:09;;;;;;;1.30;0.90;;;22.00;50.60;;;;;;5079956;28;20021;-66
2024/02/26 01:05:35;;;;;;;1.65;0.90;;;22.00;50.60;;;;;;5080438;28;20031;-66
2024/02/26 01:08:02;;;;;;;1.15;0.70;;;22.00;50.60;;;;;;5082406;28;20028;-62
2024/02/26 01:10:28;;;;;;;2.15;1.05;;;21.90;50.60;;;;;;5081567;28;20023;-63
2024/02/26 01:12:53;;;;;;;1.52;1.00;;;21.90;50.60;;;;;;5081911;28;20032;-63
2024/02/26 01:15:23;;;;;;;1.30;0.70;;;21.90;50.60;;;;;;5082622;28;20032;-62
2024/02/26 01:17:49;;;;;;;1.05;0.80;;;21.90;50.60;;;;;;5080069;28;20455;-62
2024/02/26 01:20:15;;;;;;;2.28;0.90;;;21.90;50.70;;;;;;5081608;28;20432;-63
2024/02/26 01:22:41;;;;;;;1.65;0.85;;;21.90;50.70;;;;;;5082231;28;20119;-63
2024/02/26 01:25:07;;;;;;;1.00;0.80;;;21.90;50.70;;;;;;5082371;28;20059;-63
2024/02/26 01:27:33;;;;;;;1.08;0.82;;;21.90;50.70;;;;;;5082612;28;20021;-66
2024/02/26 01:29:58;;;;;;;1.30;0.90;;;21.80;50.60;;;;;;5081870;28;20028;-65
2024/02/26 01:32:24;;;;;;;1.55;0.93;;;21.90;50.70;;;;;;5076302;28;20059;-66
2024/02/26 01:34:50;;;;;;;1.58;0.88;;;21.80;50.70;;;;;;5079228;28;20554;-66
2024/02/26 01:37:15;;;;;;;1.15;0.90;;;21.80;50.70;;;;;;5080735;28;20103;-65
2024/02/26 01:39:41;;;;;;;1.35;0.90;;;21.80;50.70;;;;;;5081564;28;20094;-66
2024/02/26 01:42:07;;;;;;;1.42;0.90;;;21.80;50.70;;;;;;5082072;28;20551;-66
2024/02/26 01:44:33;;;;;;;1.40;0.95;;;21.80;50.70;;;;;;5081261;28;20142;-65
2024/02/26 01:47:01;;;;;;;0.90;0.80;;;21.80;50.80;;;;;;5080140;28;20051;-66
2024/02/26 01:49:27;;;;;;;1.60;0.80;;;21.80;50.70;;;;;;5081242;28;20059;-66
2024/02/26 01:51:53;;;;;;;1.80;1.00;;;21.70;50.70;;;;;;5079918;28;20051;-66
2024/02/26 01:54:18;;;;;;;1.25;0.80;;;21.70;50.70;;;;;;5082294;28;20040;-67
2024/02/26 01:56:44;;;;;;;1.10;0.80;;;21.70;50.70;;;;;;5079365;28;20528;-67
2024/02/26 01:59:10;;;;;;;1.83;0.80;;;21.70;50.70;;;;;;5079730;28;20391;-66
2024/02/26 02:01:36;;;;;;;1.10;0.80;;;21.70;50.70;;;;;;5079096;28;20034;-66
2024/02/26 02:04:02;;;;;;;1.50;0.80;;;21.70;50.80;;;;;;5078543;28;20506;-65
2024/02/26 02:06:28;;;;;;;1.48;0.90;;;21.70;50.80;;;;;;5064217;28;20020;-66
2024/02/26 02:08:55;;;;;;;1.50;0.77;;;21.70;50.80;;;;;;5080548;28;20027;-66
2024/02/26 02:11:20;;;;;;;1.50;0.80;;;21.60;50.80;;;;;;5059358;28;20119;-66
2024/02/26 02:13:46;;;;;;;1.63;1.00;;;21.60;50.80;;;;;;5080494;28;20115;-66
2024/02/26 02:16:13;;;;;;;2.97;1.40;;;21.60;50.80;;;;;;5079534;28;20395;-66
2024/02/26 02:18:38;;;;;;;1.90;1.00;;;21.60;50.80;;;;;;5061953;28;20036;-66
2024/02/26 02:21:04;;;;;;;1.65;0.82;;;21.60;50.80;;;;;;5079441;28;20082;-67
2024/02/26 02:23:30;;;;;;;1.23;0.90;;;21.60;50.80;;;;;;5079335;28;20047;-66
2024/02/26 02:25:57;;;;;;;1.63;0.90;;;21.60;50.90;;;;;;5078701;28;20039;-66
2024/02/26 02:28:25;;;;;;;0.95;0.82;;;21.60;51.10;;;;;;5080011;28;20518;-66
2024/02/26 02:30:50;;;;;;;1.70;0.90;;;21.60;50.90;;;;;;5081543;28;20541;-66
2024/02/26 02:33:17;;;;;;;1.40;0.80;;;21.60;50.90;;;;;;5076493;28;20027;-66
2024/02/26 02:35:42;;;;;;;1.27;0.80;;;21.60;50.90;;;;;;5080889;28;20440;-67
2024/02/26 02:38:08;;;;;;;1.30;0.80;;;21.50;50.80;;;;;;5080592;28;20028;-62
2024/02/26 02:40:34;;;;;;;1.25;0.90;;;21.50;50.80;;;;;;5079558;28;20043;-62
2024/02/26 02:43:01;;;;;;;1.40;0.90;;;21.50;51.40;;;;;;5077770;28;20029;-62
2024/02/26 02:45:33;;;;;;;1.48;0.88;;;21.50;50.80;;;;;;5080741;28;20423;-62
2024/02/26 02:47:59;;;;;;;1.60;1.00;;;21.50;51.40;;;;;;5079929;28;20031;-63
2024/02/26 02:50:25;;;;;;;1.55;0.80;;;21.50;50.90;;;;;;5079790;28;20028;-63
2024/02/26 02:52:50;;;;;;;1.80;0.98;;;21.50;50.90;;;;;;5079822;28;20044;-62
2024/02/26 02:55:16;;;;;;;1.30;0.80;;;21.50;50.90;;;;;;5079526;28;20563;-62
2024/02/26 02:57:42;;;;;;;1.20;0.90;;;21.50;50.90;;;;;;5081716;28;20115;-63
2024/02/26 03:00:11;;;;;;;1.38;0.90;;;21.40;50.90;;;;;;5079859;28;20103;-62
2024/02/26 03:02:37;;;;;;;1.60;0.90;;;21.40;50.90;;;;;;5078321;28;20028;-62
2024/02/26 03:05:04;;;;;;;1.17;0.80;;;21.50;50.90;;;;;;5061465;28;20043;-62
2024/02/26 03:07:30;;;;;;;1.40;0.93;;;21.40;50.90;;;;;;5079218;28;20020;-62
2024/02/26 03:09:55;;;;;;;1.40;0.90;;;21.40;50.90;;;;;;5078418;28;20017;-62
2024/02/26 03:12:21;;;;;;;1.08;0.70;;;21.40;50.90;;;;;;5079563;28;20020;-62
2024/02/26 03:14:46;;;;;;;0.95;0.80;;;21.40;51.00;;;;;;5079171;28;20498;-63
2024/02/26 03:17:13;;;;;;;1.35;0.90;;;21.40;50.90;;;;;;5077758;28;20028;-63
2024/02/26 03:19:38;;;;;;;1.50;0.88;;;21.40;51.00;;;;;;5078322;28;20044;-62
2024/02/26 03:22:04;;;;;;;1.25;0.80;;;21.40;51.00;;;;;;5079397;28;20040;-62
2024/02/26 03:24:30;;;;;;;1.27;0.90;;;21.40;51.00;;;;;;5079208;28;20024;-62
2024/02/26 03:26:56;;;;;;;1.27;0.80;;;21.30;50.90;;;;;;5080726;28;20162;-62
2024/02/26 03:29:21;;;;;;;1.35;0.98;;;21.40;51.00;;;;;;5079857;28;20456;-62
2024/02/26 03:31:47;;;;;;;1.33;0.82;;;21.30;51.00;;;;;;5076132;28;20035;-62
2024/02/26 03:34:14;;;;;;;1.23;0.80;;;21.30;51.00;;;;;;5079531;28;20131;-63
2024/02/26 03:36:40;;;;;;;1.75;0.90;;;21.30;51.00;;;;;;5077927;28;20047;-62
2024/02/26 03:39:07;;;;;;;1.10;0.80;;;21.30;51.00;;;;;;5079895;28;20027;-61
2024/02/26 03:41:34;;;;;;;1.90;0.90;;;21.30;51.00;;;;;;5077703;28;20078;-62
2024/02/26 03:44:00;;;;;;;1.25;0.90;;;21.30;51.10;;;;;;5078033;28;20107;-61
2024/02/26 03:46:26;;;;;;;1.00;0.80;;;21.30;51.00;;;;;;5078911;28;20107;-61
2024/02/26 03:48:51;;;;;;;1.30;0.80;;;21.30;51.00;;;;;;5075152;28;20035;-63
2024/02/26 03:51:17;;;;;;;1.05;0.70;;;21.30;51.10;;;;;;5078900;28;20417;-61
2024/02/26 03:53:43;;;;;;;2.13;0.82;;;21.30;51.00;;;;;;5077295;28;20042;-63
2024/02/26 03:56:08;;;;;;;1.42;0.98;;;21.30;51.10;;;;;;5078419;28;20392;-62
2024/02/26 03:58:34;;;;;;;0.98;0.80;;;21.30;51.10;;;;;;5078390;28;20039;-66
2024/02/26 04:01:00;;;;;;;1.17;0.80;;;21.30;51.10;;;;;;5077897;28;20073;-65
2024/02/26 04:03:26;;;;;;;1.30;0.90;;;21.30;51.10;;;;;;5077011;28;20091;-66
2024/02/26 04:05:51;;;;;;;1.10;0.80;;;21.20;51.10;;;;;;5062221;28;20116;-66
2024/02/26 04:08:17;;;;;;;1.15;0.80;;;21.20;51.10;;;;;;5061479;28;20092;-63
2024/02/26 04:10:43;;;;;;;1.42;0.80;;;21.20;51.10;;;;;;5078529;28;20107;-63
2024/02/26 04:13:08;;;;;;;1.00;0.80;;;21.20;51.10;;;;;;5078916;28;20629;-62
2024/02/26 04:15:34;;;;;;;1.17;0.75;;;21.20;51.10;;;;;;5081867;28;20107;-61
2024/02/26 04:18:00;;;;;;;1.45;1.00;;;21.20;51.10;;;;;;5079057;28;20024;-66
2024/02/26 04:20:25;;;;;;;1.48;1.00;;;21.20;51.10;;;;;;5077452;28;20028;-66
2024/02/26 04:22:51;;;;;;;0.75;0.75;;;21.20;51.20;;;;;;5076980;28;20372;-66
2024/02/26 04:25:17;;;;;;;1.23;0.90;;;21.20;51.20;;;;;;5079275;28;20441;-66
2024/02/26 04:27:42;;;;;;;1.58;0.88;;;21.20;51.20;;;;;;5081785;28;20016;-66
2024/02/26 04:30:08;;;;;;;1.52;0.90;;;21.20;51.20;;;;;;5081734;28;20036;-66
2024/02/26 04:32:34;;;;;;;0.90;0.73;;;21.10;51.10;;;;;;5061775;28;20028;-66
2024/02/26 04:35:02;;;;;;;1.17;0.80;;;21.10;51.10;;;;;;5085224;28;20147;-67
2024/02/26 04:37:30;;;;;;;1.25;0.80;;;21.10;51.10;;;;;;5082182;28;20029;-66
2024/02/26 04:40:00;;;;;;;1.17;0.80;;;21.10;51.10;;;;;;5082573;28;20031;-66
2024/02/26 04:42:26;;;;;;;;;;;21.10;51.20;;;;;;5082508;28;20149;-66
2024/02/26 04:44:51;;;;;;;1.05;0.80;;;21.10;51.60;;;;;;5079549;28;19957;-66
2024/02/26 04:47:17;;;;;;;0.90;0.70;;;21.10;51.20;;;;;;5080261;28;20495;-66
2024/02/26 04:49:42;;;;;;;1.00;0.77;;;21.10;51.20;;;;;;5083184;28;20758;-66
2024/02/26 04:52:08;;;;;;;1.60;0.90;;;21.10;51.20;;;;;;5080578;28;20028;-66
2024/02/26 04:54:34;;;;;;;0.93;0.80;;;21.10;51.20;;;;;;5081456;28;20044;-66
2024/02/26 04:56:59;;;;;;;0.95;0.70;;;21.10;51.20;;;;;;5065353;28;20119;-65
2024/02/26 04:59:25;;;;;;;1.15;0.90;;;21.10;51.20;;;;;;5083049;28;20027;-66
2024/02/26 05:01:52;;;;;;;1.08;0.70;;;21.10;51.20;;;;;;5080816;28;20032;-66
2024/02/26 05:04:18;;;;;;;1.00;0.80;;;21.10;51.20;;;;;;5078204;28;20058;-66
2024/02/26 05:06:43;;;;;;;0.75;0.70;;;21.10;51.20;;;;;;5080500;28;20112;-66
2024/02/26 05:09:09;;;;;;;0.75;0.70;;;21.10;51.20;;;;;;5079241;28;20487;-66
2024/02/26 05:11:35;;;;;;;0.90;0.70;;;21.10;51.20;;;;;;5080960;28;20028;-66
2024/02/26 05:14:01;;;;;;;0.90;0.80;;;21.10;51.30;;;;;;5063734;28;20020;-66
2024/02/26 05:16:27;;;;;;;1.27;0.70;;;21.10;51.30;;;;;;5078627;28;20044;-66
2024/02/26 05:18:53;;;;;;;1.10;0.90;;;21.10;51.30;;;;;;5080670;28;20035;-66
2024/02/26 05:21:18;;;;;;;0.85;0.73;;;21.10;51.40;;;;;;5080936;28;20036;-66
2024/02/26 05:23:45;;;;;;;0.95;0.80;;;21.10;51.40;;;;;;5082226;28;20024;-67
2024/02/26 05:26:10;;;;;;;1.77;0.90;;;21.00;51.30;;;;;;5082069;28;20051;-66
2024/02/26 05:28:39;;;;;;;1.02;0.80;;;21.00;51.40;;;;;;5080782;28;20059;-66
2024/02/26 05:31:05;;;;;;;1.30;0.80;;;21.10;51.40;;;;;;5079542;28;20565;-66
2024/02/26 05:33:30;;;;;;;1.15;0.80;;;21.00;51.40;;;;;;5081308;28;20665;-66
2024/02/26 05:35:56;;;;;;;1.13;0.77;;;21.00;52.00;;;;;;5080774;28;20016;-66
2024/02/26 05:38:22;;;;;;;1.45;0.90;;;21.00;51.50;;;;;;5079576;28;20020;-66
2024/02/26 05:40:47;;;;;;;1.15;0.88;;;21.10;51.60;;;;;;5078662;28;20020;-65
2024/02/26 05:43:15;;;;;;;0.88;0.70;;;21.00;51.60;;;;;;5078932;28;20047;-66
2024/02/26 05:45:41;;;;;;;0.95;0.70;;;21.00;51.60;;;;;;5078372;28;20020;-66
2024/02/26 05:48:07;;;;;;;0.90;0.77;;;21.00;51.70;;;;;;5078324;28;20029;-66
2024/02/26 05:50:32;;;;;;;1.27;0.70;;;21.00;51.70;;;;;;5079577;28;20115;-66
2024/02/26 05:52:58;;;;;;;0.90;0.70;;;21.00;51.70;;;;;;5063988;28;20027;-67
2024/02/26 05:55:23;;;;;;;0.82;0.60;;;21.00;51.70;;;;;;5082320;28;20024;-67
2024/02/26 05:57:52;;;;;;;1.42;0.73;;;21.00;51.70;;;;;;5078485;28;20055;-66
2024/02/26 06:00:18;;;;;;;1.00;0.80;;;21.00;51.70;;;;;;5079852;28;20024;-61
2024/02/26 06:02:44;;;;;;;1.38;0.80;;;21.00;51.80;;;;;;5080737;28;20533;-61
2024/02/26 06:05:09;;;;;;;1.10;0.80;;;21.00;51.80;;;;;;5078219;28;20025;-63
2024/02/26 06:07:35;;;;;;;1.20;0.80;;;21.00;51.90;;;;;;5079976;28;20643;-61
2024/02/26 06:10:02;;;;;;;1.95;0.70;;;21.00;51.90;;;;;;5082018;28;20032;-62
2024/02/26 06:12:28;;;;;;;1.00;0.70;;;21.00;52.00;;;;;;5081265;28;20535;-62
2024/02/26 06:14:54;;;;;;;1.80;0.90;;;21.00;52.00;;;;;;5079244;28;20028;-62
2024/02/26 06:17:19;;;;;;;1.10;0.77;;;21.00;52.10;;;;;;5081750;28;20141;-62
2024/02/26 06:19:45;;;;;;;1.48;0.90;;;21.00;52.10;;;;;;5077521;28;20047;-64
2024/02/26 06:22:11;;;;;;;1.65;0.90;;;21.00;52.20;;;;;;5078535;28;20023;-61
2024/02/26 06:24:36;;;;;;;2.80;1.00;;;21.00;52.20;;;;;;5077754;28;20028;-61
2024/02/26 06:27:02;;;;;;;2.10;1.00;;;21.00;52.70;;;;;;5079715;28;20112;-61
2024/02/26 06:29:28;;;;;;;1.88;1.00;;;21.00;52.20;;;;;;5079829;28;20024;-61
2024/02/26 06:31:54;;;;;;;2.05;0.90;;;21.00;52.20;;;;;;5080948;28;21015;-62
2024/02/26 06:34:20;;;;;;;0.77;0.70;;;21.00;52.20;;;;;;5077276;28;20396;-62
2024/02/26 06:36:45;;;;;;;1.38;0.90;;;21.00;52.20;;;;;;5080515;28;20031;-62
2024/02/26 06:39:12;;;;;;;1.23;0.80;;;20.90;52.10;;;;;;5079236;28;20387;-63
2024/02/26 06:41:39;;;;;;;1.67;1.00;;;21.00;52.20;;;;;;5079237;28;20024;-61
2024/02/26 06:44:05;;;;;;;1.90;0.80;;;21.00;52.10;;;;;;5079168;28;20504;-61
2024/02/26 06:46:30;;;;;;;1.38;0.80;;;21.00;52.10;;;;;;5079921;28;20029;-62
2024/02/26 06:48:56;;;;;;;0.82;0.73;;;21.00;52.10;;;;;;5077188;28;20389;-63
2024/02/26 06:51:22;;;;;;;1.40;0.80;;;21.00;52.20;;;;;;5079800;28;20373;-61
2024/02/26 06:53:49;;;;;;;0.80;0.70;;;21.00;52.30;;;;;;5081238;28;20028;-62
2024/02/26 06:56:14;;;;;;;0.90;0.80;;;21.00;52.60;;;;;;5081738;28;20032;-61
2024/02/26 06:58:40;;;;;;;1.88;1.00;;;21.00;52.70;;;;;;5078962;28;20028;-66
2024/02/26 07:01:08;;;;;;;1.90;1.00;;;21.00;52.70;;;;;;5077866;28;20131;-66
2024/02/26 07:03:33;;;;;;;1.90;0.95;;;21.00;52.70;;;;;;5076212;28;20019;-66
2024/02/26 07:05:59;;;;;;;2.58;1.00;;;21.00;52.60;;;;;;5077279;28;20028;-65
2024/02/26 07:08:25;;;;;;;1.90;1.10;;;21.00;52.60;;;;;;5078556;28;20082;-66
2024/02/26 07:10:50;;;;;;;1.63;1.02;;;21.10;52.60;;;;;;5060643;28;20035;-66
2024/02/26 07:13:16;;;;;;;2.38;1.00;;;21.10;52.60;;;;;;5061158;28;20111;-66
2024/02/26 07:15:41;;;;;;;4.13;1.20;;;21.10;52.70;;;;;;5079934;28;20540;-66
2024/02/26 07:18:07;;;;;;;3.42;1.13;;;21.10;52.50;;;;;;5077504;28;20033;-66
2024/02/26 07:20:33;;;;;;;4.00;1.30;;;21.10;52.50;;;;;;5059788;28;20028;-66
2024/02/26 07:22:58;;;;;;;3.15;1.13;;;21.10;52.40;;;;;;5079674;28;20203;-66
2024/02/26 07:25:24;;;;;;;1.98;1.20;;;21.20;52.40;;;;;;5095462;28;20039;-66
2024/02/26 07:27:50;;;;;;;2.42;1.38;;;21.20;52.40;;;;;;5077929;28;20032;-66
2024/02/26 07:30:16;;;;;;;3.53;1.33;;;21.20;52.40;;;;;;5076941;28;20017;-66
2024/02/26 07:32:44;;;;;;;4.07;1.50;;;21.20;52.30;;;;;;5079631;28;20100;-66
2024/02/26 07:35:10;;;;;;;3.78;1.20;;;21.20;52.30;;;;;;5075794;28;20413;-66
2024/02/26 07:37:35;;;;;;;2.92;1.38;;;21.20;52.20;;;;;;5077776;28;20119;-65
2024/02/26 07:40:01;;;;;;;3.03;1.35;;;21.20;52.20;;;;;;5078694;28;20381;-65
2024/02/26 07:42:27;;;;;;;4.07;1.38;;;21.30;52.20;;;;;;5077702;28;20112;-66
2024/02/26 07:44:52;;;;;;;3.80;1.63;;;21.30;52.10;;;;;;5079942;28;20020;-65
2024/02/26 07:47:19;;;;;;;4.10;1.70;;;21.30;52.10;;;;;;5075972;28;20020;-66
2024/02/26 07:49:44;;;;;;;3.65;1.58;;;21.30;52.00;;;;;;5077677;28;20526;-66
2024/02/26 07:52:10;;;;;;;3.20;1.50;;;21.30;52.00;;;;;;5078464;28;20025;-66
2024/02/26 07:54:36;;;;;;;4.50;1.58;;;21.40;52.00;;;;;;5079477;28;20054;-66
2024/02/26 07:57:05;;;;;;;3.05;1.40;;;21.40;52.10;;;;;;5079637;28;20408;-66
2024/02/26 07:59:31;;;;;;;4.80;1.52;;;21.30;51.90;;;;;;5079567;28;20028;-66
2024/02/26 08:01:57;;;;;;;3.65;1.40;;;21.40;52.10;;;;;;5082365;28;20844;-66
2024/02/26 08:04:22;;;;;;;4.10;1.58;;;21.40;52.40;;;;;;5081341;28;20083;-66
2024/02/26 08:06:48;;;;;;;3.33;1.33;;;21.40;52.70;;;;;;5083873;28;20032;-66
2024/02/26 08:09:13;;;;;;;3.70;1.45;;;21.50;53.00;;;;;;5081375;28;20025;-61
2024/02/26 08:11:39;;;;;;;2.65;1.30;;;21.50;53.30;;;;;;5082627;28;20495;-61
2024/02/26 08:14:05;;;;;;;3.40;1.63;;;21.50;53.40;;;;;;5080816;28;20032;-62
2024/02/26 08:16:30;;;;;;;3.75;1.50;;;21.50;53.50;;;;;;5081338;28;20029;-63
2024/02/26 08:18:56;;;;;;;2.63;1.40;;;21.60;53.60;;;;;;5081288;28;20124;-63
2024/02/26 08:21:22;;;;;;;2.33;1.30;;;21.60;53.70;;;;;;5083515;28;20051;-63
2024/02/26 08:23:47;;;;;;;2.67;1.35;;;21.60;53.90;;;;;;5083197;28;20028;-62
2024/02/26 08:26:13;;;;;;;4.55;1.70;;;21.70;54.00;;;;;;5082462;28;20419;-62
2024/02/26 08:28:38;;;;;;;3.28;1.40;;;21.70;54.10;;;;;;5081548;28;20024;-62
2024/02/26 08:31:04;;;;;;;2.45;1.10;;;21.70;54.30;;;;;;5082365;28;20020;-61
2024/02/26 08:33:30;;;;;;;2.17;1.10;;;21.80;54.40;;;;;;5083114;28;20029;-62
2024/02/26 08:35:56;;;;;;;2.40;1.25;;;21.80;54.50;;;;;;5082199;28;20024;-64
2024/02/26 08:38:22;;;;;;;2.13;1.10;;;21.80;54.60;;;;;;5081489;28;20027;-62
2024/02/26 08:40:48;;;;;;;2.40;1.30;;;21.90;54.90;;;;;;5081816;28;20055;-63
2024/02/26 08:43:14;;;;;;;1.90;1.05;;;21.90;54.90;;;;;;5081187;28;20029;-62
2024/02/26 08:45:40;;;;;;;2.08;1.10;;;21.90;54.90;;;;;;5081636;28;20051;-63
2024/02/26 08:48:06;;;;;;;2.22;1.10;;;22.00;55.00;;;;;;5083514;28;20017;-63
2024/02/26 08:50:32;;;;;;;2.72;1.25;;;22.00;55.00;;;;;;5080411;28;20032;-63
2024/02/26 08:52:57;;;;;;;2.13;1.30;;;22.00;55.10;;;;;;5081446;28;20492;-62
2024/02/26 08:55:23;;;;;;;3.60;1.33;;;22.10;55.10;;;;;;5082046;28;20033;-62
2024/02/26 08:57:49;;;;;;;1.58;1.08;;;22.10;55.10;;;;;;5086008;28;20039;-62
2024/02/26 09:00:20;;;;;;;2.58;1.10;;;22.10;55.00;;;;;;5084120;28;20073;-67
2024/02/26 09:02:46;;;;;;;3.55;1.10;;;22.20;55.10;;;;;;5081025;28;20527;-66
2024/02/26 09:05:12;;;;;;;2.72;1.20;;;22.20;55.10;;;;;;5080437;28;20102;-66
2024/02/26 09:07:38;;;;;;;3.00;1.52;;;22.20;55.20;;;;;;5081405;28;20058;-66
2024/02/26 09:10:05;;;;;;;2.53;1.30;;;22.20;55.20;;;;;;5083497;28;20020;-66
2024/02/26 09:12:30;;;;;;;2.70;1.20;;;22.30;55.20;;;;;;5082572;28;20020;-67
2024/02/26 09:14:57;;;;;;;3.00;1.35;;;22.30;55.30;;;;;;5083441;28;20396;-66
2024/02/26 09:17:23;;;;;;;2.55;1.40;;;22.30;53.60;;;;;;5078775;28;20036;-66
2024/02/26 09:19:48;;;;;;;3.25;1.60;;;22.30;52.30;;;;;;5082239;28;20036;-62
2024/02/26 09:22:14;;;;;;;3.03;1.38;;;22.20;51.70;;;;;;5081781;28;20027;-64
2024/02/26 09:24:40;;;;;;;2.55;1.30;;;22.20;51.40;;;;;;5081750;28;20476;-62
2024/02/26 09:27:05;;;;;;;2.47;1.30;;;22.20;51.40;;;;;;5081873;28;20400;-64
2024/02/26 09:29:31;;;;;;;2.97;1.30;;;22.20;51.20;;;;;;5081280;28;20032;-65
2024/02/26 09:31:57;;;;;;;2.10;1.20;;;22.20;51.10;;;;;;5078896;28;20033;-67
2024/02/26 09:34:22;;;;;;;2.75;1.30;;;22.20;51.00;;;;;;5079425;28;20029;-65
2024/02/26 09:36:48;;;;;;;1.85;1.25;;;22.20;50.90;;;;;;5082654;28;20033;-66
2024/02/26 09:39:14;;;;;;;2.45;1.35;;;22.20;50.90;;;;;;5080026;28;20746;-66
2024/02/26 09:41:40;;;;;;;1.95;1.17;;;22.20;50.90;;;;;;5081608;28;20031;-67
2024/02/26 09:44:07;;;;;;;2.47;1.40;;;22.20;50.90;;;;;;5083679;28;20028;-66
2024/02/26 09:46:33;;;;;;;3.00;1.30;;;22.20;50.80;;;;;;5078346;28;20498;-66
2024/02/26 09:48:59;;;;;;;2.28;1.30;;;22.30;50.80;;;;;;5080212;28;20059;-66
2024/02/26 09:51:25;;;;;;;2.47;1.30;;;22.30;50.70;;;;;;5060155;28;20488;-66
2024/02/26 09:53:52;;;;;;;2.85;1.40;;;22.30;50.60;;;;;;5079733;28;20111;-66
2024/02/26 09:56:18;;;;;;;1.85;1.15;;;22.30;50.50;;;;;;5080756;28;20392;-65
2024/02/26 09:58:47;;;;;;;2.40;1.33;;;22.30;50.50;;;;;;5079377;28;20024;-66
2024/02/26 10:01:18;;;;;;;2.70;1.17;;;22.30;50.50;;;;;;5081318;28;20032;-66
2024/02/26 10:03:44;;;;;;;2.30;1.42;;;22.30;50.50;;;;;;5078808;28;20120;-66
2024/02/26 10:06:11;;;;;;;1.92;1.15;;;22.30;50.50;;;;;;5081096;28;20050;-66
2024/02/26 10:08:37;;;;;;;2.50;1.38;;;22.30;50.40;;;;;;5080688;28;20043;-62
2024/02/26 10:11:05;;;;;;;1.92;1.10;;;22.30;50.40;;;;;;5081739;28;20468;-64
2024/02/26 10:13:30;;;;;;;1.83;1.05;;;22.30;50.40;;;;;;5079408;28;20024;-62
2024/02/26 10:15:56;;;;;;;2.30;1.38;;;22.30;50.40;;;;;;5081679;28;20043;-63
2024/02/26 10:18:24;;;;;;;2.33;1.40;;;22.30;50.30;;;;;;5079652;28;20039;-62
2024/02/26 10:21:02;;;;;;;2.78;1.23;;;22.30;50.40;;;;;;5078541;28;20463;-63
2024/02/26 10:23:28;;;;;;;2.75;1.40;;;22.40;50.30;;;;;;5079197;28;20063;-62
2024/02/26 10:25:57;;;;;;;2.67;1.30;;;22.30;50.30;;;;;;5080970;28;20055;-61
2024/02/26 10:28:23;;;;;;;3.03;1.40;;;22.40;50.30;;;;;;5079624;28;20456;-62
2024/02/26 10:30:48;;;;;;;3.22;1.10;;;22.40;50.30;;;;;;5082048;28;20863;-62
2024/02/26 10:33:14;;;;;;;2.17;1.20;;;22.40;50.30;;;;;;5078876;28;20071;-62
2024/02/26 10:35:45;;;;;;;2.33;1.27;;;22.40;50.20;;;;;;5077208;28;20108;-62
2024/02/26 10:38:11;;;;;;;2.42;1.40;;;22.40;50.30;;;;;;5078435;28;20025;-61
2024/02/26 10:40:37;;;;;;;1.90;1.10;;;22.40;50.70;;;;;;5078576;28;20081;-62
2024/02/26 10:43:02;;;;;;;2.65;1.38;;;22.40;50.20;;;;;;5096529;28;20468;-62
2024/02/26 10:45:32;;;;;;;2.30;1.30;;;22.40;50.20;;;;;;5081552;28;20024;-61
2024/02/26 10:47:57;;;;;;;2.20;1.35;;;22.40;50.20;;;;;;5079713;28;20055;-61
2024/02/26 10:50:25;;;;;;;1.73;1.10;;;22.40;50.20;;;;;;5078151;28;20056;-62
2024/02/26 10:52:51;;;;;;;2.30;1.10;;;22.40;50.20;;;;;;5081118;28;20119;-61
2024/02/26 10:55:20;;;;;;;2.28;1.30;;;22.40;50.10;;;;;;5081165;28;20078;-61
2024/02/26 10:57:47;;;;;;;2.08;1.20;;;22.40;50.10;;;;;;5081040;28;20538;-62
2024/02/26 11:00:16;;;;;;;2.47;1.40;;;22.50;50.10;;;;;;5078712;28;20100;-61
2024/02/26 11:02:43;;;;;;;2.40;1.50;;;22.40;50.10;;;;;;5077874;28;20028;-61
2024/02/26 11:05:12;;;;;;;4.55;1.33;;;22.40;50.30;;;;;;5077908;28;20036;-62
2024/02/26 11:07:38;;;;;;;2.88;1.40;;;22.50;50.60;;;;;;5080647;28;20548;-62
2024/02/26 11:10:08;;;;;;;2.78;1.50;;;22.50;50.50;;;;;;5079900;28;20023;-64
2024/02/26 11:12:37;;;;;;;2.45;1.30;;;22.60;50.60;;;;;;5082098;28;20037;-63
2024/02/26 11:15:04;;;;;;;2.75;1.30;;;22.50;50.00;;;;;;5080116;28;20024;-61
2024/02/26 11:17:31;;;;;;;2.88;1.60;;;22.50;50.00;;;;;;5079227;28;20032;-62
2024/02/26 11:19:57;;;;;;;2.30;1.30;;;22.60;49.90;;;;;;5076324;28;20075;-61
2024/02/26 11:22:26;;;;;;;2.30;1.30;;;22.50;49.90;;;;;;5076688;28;20035;-62
2024/02/26 11:25:00;;;;;;;2.50;1.50;;;22.50;49.80;;;;;;5080194;28;20039;-61
2024/02/26 11:27:39;;;;;;;2.35;1.27;;;22.50;49.80;;;;;;5080575;28;20028;-61
2024/02/26 11:30:10;;;;;;;2.55;1.50;;;22.50;49.70;;;;;;5077196;28;20480;-62
2024/02/26 11:32:36;;;;;;;2.90;1.20;;;22.50;49.70;;;;;;5081691;28;20487;-62
2024/02/26 11:35:04;;;;;;;1.77;1.10;;;22.50;49.70;;;;;;5080512;28;20020;-62
2024/02/26 11:37:30;;;;;;;2.55;1.30;;;22.50;49.80;;;;;;5079130;28;20444;-63
2024/02/26 11:39:59;;;;;;;2.50;1.30;;;22.50;49.70;;;;;;5081022;28;20138;-61
2024/02/26 11:42:29;;;;;;;2.72;1.45;;;22.50;49.80;;;;;;5082109;28;20035;-61
2024/02/26 11:45:00;;;;;;;1.88;1.30;;;22.50;49.80;;;;;;5077899;28;20449;-62
2024/02/26 11:47:27;;;;;;;1.85;1.17;;;22.40;49.70;;;;;;5080475;28;20487;-62
2024/02/26 11:49:52;;;;;;;3.08;1.20;;;22.40;49.70;;;;;;5061096;28;20029;-62
2024/02/26 11:52:18;;;;;;;3.42;1.20;;;22.40;49.70;;;;;;5078482;28;20358;-61
2024/02/26 11:54:54;;;;;;;1.88;1.00;;;22.40;49.70;;;;;;5079212;28;20024;-62
2024/02/26 11:57:39;;;;;;;2.03;1.20;;;22.40;49.70;;;;;;5078894;28;20036;-62
2024/02/26 12:00:12;;;;;;;2.05;1.30;;;22.40;49.70;;;;;;5078770;28;20016;-63
2024/02/26 12:02:38;;;;;;;2.30;1.38;;;22.40;49.70;;;;;;5081526;28;20105;-61
2024/02/26 12:05:11;;;;;;;3.08;1.30;;;22.40;49.80;;;;;;5083619;28;20020;-63
2024/02/26 12:07:39;;;;;;;3.15;1.45;;;22.40;49.80;;;;;;5076396;28;20020;-62
2024/02/26 12:10:34;;;;;;;2.33;1.38;;;22.40;49.90;;;;;;5078195;28;20032;-62
2024/02/26 12:13:02;;;;;;;3.63;1.75;;;22.30;49.80;;;;;;5079598;28;20102;-61
2024/02/26 12:15:41;;;;;;;4.05;1.70;;;22.30;49.90;;;;;;5078292;28;20431;-62
2024/02/26 12:18:09;;;;;;;3.45;1.70;;;22.30;49.80;;;;;;5078321;28;20033;-61
2024/02/26 12:20:35;;;;;;;4.22;1.90;;;22.30;49.90;;;;;;5077647;28;20087;-63
2024/02/26 12:23:03;;;;;;;3.20;1.80;;;22.30;50.00;;;;;;5077276;28;20036;-62
2024/02/26 12:25:31;;;;;;;3.73;1.70;;;22.30;50.00;;;;;;5078131;28;20021;-61
2024/02/26 12:27:57;;;;;;;3.50;1.70;;;22.30;50.10;;;;;;5078281;28;20090;-62
2024/02/26 12:30:23;;;;;;;3.33;1.52;;;22.30;50.20;;;;;;5078390;28;20537;-64
2024/02/26 12:32:51;;;;;;;3.95;1.65;;;22.30;50.20;;;;;;5079878;28;20441;-66
2024/02/26 12:35:17;;;;;;;3.65;1.80;;;22.30;50.30;;;;;;5079697;28;20051;-66
2024/02/26 12:37:43;;;;;;;3.38;1.65;;;22.30;50.40;;;;;;5075430;28;20063;-65
2024/02/26 12:40:10;;;;;;;3.35;1.75;;;22.30;50.50;;;;;;5078345;28;20040;-65
2024/02/26 12:42:40;;;;;;;2.67;1.50;;;22.30;50.50;;;;;;5077467;28;20480;-65
2024/02/26 12:45:09;;;;;;;3.33;1.77;;;22.30;50.60;;;;;;5077352;28;20103;-65